sensor_id;sensor_type;location;lat;lon;timestamp;pressure;altitude;pressure_sealevel;temperature;humidity
59767;BME280;46248;58.364;25.582;2024-03-02T00:01:14;101551.69;;;-0.37;100.00
59767;BME280;46248;58.364;25.582;2024-03-02T00:04:38;101544.78;;;-0.39;100.00
59767;BME280;46248;58.364;25.582;2024-03-02T00:08:00;101548.22;;;-0.42;100.00
59767;BME280;46248;58.364;25.582;2024-03-02T00:11:22;101536.22;;;-0.41;100.00
59767;BME280;46248;58.364;25.582;2024-03-02T00:14:44;101546.50;;;-0.41;100.00
59767;BME280;46248;58.364;25.582;2024-03-02T00:18:06;101543.97;;;-0.38;100.00
59767;BME280;46248;58.364;25.582;2024-03-02T00:21:31;101543.16;;;-0.36;100.00
59767;BME280;46248;58.364;25.582;2024-03-02T00:24:53;101547.44;;;-0.35;100.00
59767;BME280;46248;58.364;25.582;2024-03-02T00:28:17;101541.41;;;-0.37;100.00
59767;BME280;46248;58.364;25.582;2024-03-02T00:31:41;101538.03;;;-0.33;100.00
59767;BME280;46248;58.364;25.582;2024-03-02T00:35:05;101536.28;;;-0.34;100.00
59767;BME280;46248;58.364;25.582;2024-03-02T00:38:28;101534.56;;;-0.35;100.00
59767;BME280;46248;58.364;25.582;2024-03-02T00:41:50;101537.13;;;-0.36;100.00
59767;BME280;46248;58.364;25.582;2024-03-02T00:45:12;101532.84;;;-0.36;100.00
59767;BME280;46248;58.364;25.582;2024-03-02T00:48:34;101519.91;;;-0.40;100.00
59767;BME280;46248;58.364;25.582;2024-03-02T00:51:57;101518.25;;;-0.38;100.00
59767;BME280;46248;58.364;25.582;2024-03-02T00:55:21;101515.63;;;-0.40;100.00
59767;BME280;46248;58.364;25.582;2024-03-02T00:58:43;101515.66;;;-0.38;100.00
59767;BME280;46248;58.364;25.582;2024-03-02T01:02:05;101515.66;;;-0.38;100.00
59767;BME280;46248;58.364;25.582;2024-03-02T01:05:27;101519.06;;;-0.39;100.00
59767;BME280;46248;58.364;25.582;2024-03-02T01:08:48;101517.34;;;-0.40;100.00
59767;BME280;46248;58.364;25.582;2024-03-02T01:12:14;101498.41;;;-0.46;100.00
59767;BME280;46248;58.364;25.582;2024-03-02T01:15:39;101508.75;;;-0.42;100.00
59767;BME280;46248;58.364;25.582;2024-03-02T01:19:01;101494.16;;;-0.43;100.00
59767;BME280;46248;58.364;25.582;2024-03-02T01:22:23;101497.59;;;-0.44;100.00
59767;BME280;46248;58.364;25.582;2024-03-02T01:25:45;101503.63;;;-0.41;100.00
59767;BME280;46248;58.364;25.582;2024-03-02T01:29:08;101502.78;;;-0.40;100.00
59767;BME280;46248;58.364;25.582;2024-03-02T01:32:30;101496.75;;;-0.40;100.00
59767;BME280;46248;58.364;25.582;2024-03-02T01:35:52;101492.50;;;-0.38;100.00
59767;BME280;46248;58.364;25.582;2024-03-02T01:39:14;101493.34;;;-0.39;100.00
59767;BME280;46248;58.364;25.582;2024-03-02T01:42:36;101493.34;;;-0.39;100.00
59767;BME280;46248;58.364;25.582;2024-03-02T01:46:00;101485.63;;;-0.38;100.00
59767;BME280;46248;58.364;25.582;2024-03-02T01:49:22;101488.25;;;-0.36;100.00
59767;BME280;46248;58.364;25.582;2024-03-02T01:52:44;101481.34;;;-0.37;100.00
59767;BME280;46248;58.364;25.582;2024-03-02T01:56:06;101485.63;;;-0.38;100.00
59767;BME280;46248;58.364;25.582;2024-03-02T01:59:28;101483.03;;;-0.39;100.00
59767;BME280;46248;58.364;25.582;2024-03-02T02:02:52;101492.50;;;-0.38;100.00
59767;BME280;46248;58.364;25.582;2024-03-02T02:06:14;101503.63;;;-0.39;100.00
59767;BME280;46248;58.364;25.582;2024-03-02T02:09:36;101483.84;;;-0.47;100.00
59767;BME280;46248;58.364;25.582;2024-03-02T02:12:58;101503.59;;;-0.42;100.00
59767;BME280;46248;58.364;25.582;2024-03-02T02:16:20;101503.59;;;-0.42;100.00
59767;BME280;46248;58.364;25.582;2024-03-02T02:19:44;101502.75;;;-0.43;100.00
59767;BME280;46248;58.364;25.582;2024-03-02T02:23:07;101496.72;;;-0.47;100.00
59767;BME280;46248;58.364;25.582;2024-03-02T02:26:30;101495.06;;;-0.41;100.00
59767;BME280;46248;58.364;25.582;2024-03-02T02:29:52;101489.94;;;-0.37;100.00
59767;BME280;46248;58.364;25.582;2024-03-02T02:33:14;101485.69;;;-0.33;100.00
59767;BME280;46248;58.364;25.582;2024-03-02T02:36:37;101485.72;;;-0.30;100.00
59767;BME280;46248;58.364;25.582;2024-03-02T02:40:02;101497.75;;;-0.25;100.00
59767;BME280;46248;58.364;25.582;2024-03-02T02:43:25;101497.78;;;-0.21;100.00
59767;BME280;46248;58.364;25.582;2024-03-02T02:46:47;101488.41;;;-0.16;100.00
59767;BME280;46248;58.364;25.582;2024-03-02T02:50:09;101491.88;;;-0.11;100.00
59767;BME280;46248;58.364;25.582;2024-03-02T02:53:31;101491.91;;;-0.07;100.00
59767;BME280;46248;58.364;25.582;2024-03-02T02:56:54;101494.53;;;-0.02;100.00
59767;BME280;46248;58.364;25.582;2024-03-02T03:00:17;101500.59;;;0.03;100.00
59767;BME280;46248;58.364;25.582;2024-03-02T03:03:40;101505.78;;;0.09;100.00
59767;BME280;46248;58.364;25.582;2024-03-02T03:07:02;101505.81;;;0.14;100.00
59767;BME280;46248;58.364;25.582;2024-03-02T03:10:24;101492.94;;;0.17;100.00
59767;BME280;46248;58.364;25.582;2024-03-02T03:13:48;101495.53;;;0.20;100.00
59767;BME280;46248;58.364;25.582;2024-03-02T03:17:10;101498.16;;;0.23;100.00
59767;BME280;46248;58.364;25.582;2024-03-02T03:20:32;101491.28;;;0.25;100.00
59767;BME280;46248;58.364;25.582;2024-03-02T03:23:53;101488.75;;;0.28;100.00
59767;BME280;46248;58.364;25.582;2024-03-02T03:27:15;101494.75;;;0.30;100.00
59767;BME280;46248;58.364;25.582;2024-03-02T03:30:39;101492.19;;;0.33;100.00
59767;BME280;46248;58.364;25.582;2024-03-02T03:34:01;101497.38;;;0.35;100.00
59767;BME280;46248;58.364;25.582;2024-03-02T03:37:23;101488.78;;;0.34;100.00
59767;BME280;46248;58.364;25.582;2024-03-02T03:40:46;101498.28;;;0.40;100.00
59767;BME280;46248;58.364;25.582;2024-03-02T03:44:08;101491.41;;;0.40;100.00
59767;BME280;46248;58.364;25.582;2024-03-02T03:47:32;101498.25;;;0.41;100.00
59767;BME280;46248;58.364;25.582;2024-03-02T03:50:54;101495.72;;;0.43;100.00
59767;BME280;46248;58.364;25.582;2024-03-02T03:54:16;101502.59;;;0.42;100.00
59767;BME280;46248;58.364;25.582;2024-03-02T03:57:38;101475.00;;;0.29;100.00
59767;BME280;46248;58.364;25.582;2024-03-02T04:01:00;101494.88;;;0.45;100.00
59767;BME280;46248;58.364;25.582;2024-03-02T04:04:23;101496.59;;;0.47;100.00
59767;BME280;46248;58.364;25.582;2024-03-02T04:07:45;101500.03;;;0.49;100.00
59767;BME280;46248;58.364;25.582;2024-03-02T04:11:07;101500.03;;;0.50;100.00
59767;BME280;46248;58.364;25.582;2024-03-02T04:14:29;101496.63;;;0.53;100.00
59767;BME280;46248;58.364;25.582;2024-03-02T04:17:51;101501.78;;;0.53;100.00
59767;BME280;46248;58.364;25.582;2024-03-02T04:21:14;101500.06;;;0.52;100.00
59767;BME280;46248;58.364;25.582;2024-03-02T04:24:36;101498.34;;;0.54;100.00
59767;BME280;46248;58.364;25.582;2024-03-02T04:27:58;101495.78;;;0.55;100.00
59767;BME280;46248;58.364;25.582;2024-03-02T04:31:20;101492.34;;;0.55;100.00
59767;BME280;46248;58.364;25.582;2024-03-02T04:34:42;101497.50;;;0.55;100.00
59767;BME280;46248;58.364;25.582;2024-03-02T04:38:05;101492.34;;;0.52;100.00
59767;BME280;46248;58.364;25.582;2024-03-02T04:41:27;101500.94;;;0.57;100.00
59767;BME280;46248;58.364;25.582;2024-03-02T04:44:49;101502.66;;;0.58;100.00
59767;BME280;46248;58.364;25.582;2024-03-02T04:48:11;101512.09;;;0.60;100.00
59767;BME280;46248;58.364;25.582;2024-03-02T04:51:33;101520.72;;;0.58;100.00
59767;BME280;46248;58.364;25.582;2024-03-02T04:54:57;101530.19;;;0.62;100.00
59767;BME280;46248;58.364;25.582;2024-03-02T04:58:43;101537.91;;;0.62;100.00
59767;BME280;46248;58.364;25.582;2024-03-02T05:02:05;101536.19;;;0.62;100.00
59767;BME280;46248;58.364;25.582;2024-03-02T05:05:27;101548.22;;;0.65;100.00
59767;BME280;46248;58.364;25.582;2024-03-02T05:08:49;101549.09;;;0.65;100.00
59767;BME280;46248;58.364;25.582;2024-03-02T05:12:12;101555.13;;;0.67;100.00
59767;BME280;46248;58.364;25.582;2024-03-02T05:16:01;101560.28;;;0.69;100.00
59767;BME280;46248;58.364;25.582;2024-03-02T05:19:24;101559.44;;;0.70;100.00
59767;BME280;46248;58.364;25.582;2024-03-02T05:22:46;101560.28;;;0.72;100.00
59767;BME280;46248;58.364;25.582;2024-03-02T05:26:09;101552.59;;;0.74;100.00
59767;BME280;46248;58.364;25.582;2024-03-02T05:29:35;101554.28;;;0.75;100.00
59767;BME280;46248;58.364;25.582;2024-03-02T05:32:57;101556.03;;;0.74;100.00
59767;BME280;46248;58.364;25.582;2024-03-02T05:36:18;101556.03;;;0.74;100.00
59767;BME280;46248;58.364;25.582;2024-03-02T05:39:41;101553.47;;;0.77;100.00
59767;BME280;46248;58.364;25.582;2024-03-02T05:43:03;101558.63;;;0.79;100.00
59767;BME280;46248;58.364;25.582;2024-03-02T05:46:27;101543.13;;;0.71;100.00
59767;BME280;46248;58.364;25.582;2024-03-02T05:49:49;101549.13;;;0.75;100.00
59767;BME280;46248;58.364;25.582;2024-03-02T05:53:11;101563.78;;;0.80;100.00
59767;BME280;46248;58.364;25.582;2024-03-02T05:56:33;101568.94;;;0.80;100.00
59767;BME280;46248;58.364;25.582;2024-03-02T05:59:55;101564.66;;;0.82;100.00
59767;BME280;46248;58.364;25.582;2024-03-02T06:03:18;101568.09;;;0.83;100.00
59767;BME280;46248;58.364;25.582;2024-03-02T06:06:40;101570.69;;;0.84;100.00
59767;BME280;46248;58.364;25.582;2024-03-02T06:10:03;101589.59;;;0.86;100.00
59767;BME280;46248;58.364;25.582;2024-03-02T06:13:25;101587.03;;;0.89;100.00
59767;BME280;46248;58.364;25.582;2024-03-02T06:16:46;101587.03;;;0.89;100.00
59767;BME280;46248;58.364;25.582;2024-03-02T06:20:10;101588.75;;;0.90;100.00
59767;BME280;46248;58.364;25.582;2024-03-02T06:23:32;101591.34;;;0.94;100.00
59767;BME280;46248;58.364;25.582;2024-03-02T06:26:55;101587.06;;;0.96;100.00
59767;BME280;46248;58.364;25.582;2024-03-02T06:30:17;101587.97;;;0.98;100.00
59767;BME280;46248;58.364;25.582;2024-03-02T06:33:39;101587.13;;;1.00;100.00
59767;BME280;46248;58.364;25.582;2024-03-02T06:37:04;101586.25;;;1.01;100.00
59767;BME280;46248;58.364;25.582;2024-03-02T06:40:26;101597.44;;;1.00;100.00
59767;BME280;46248;58.364;25.582;2024-03-02T06:43:48;101599.16;;;1.01;100.00
59767;BME280;46248;58.364;25.582;2024-03-02T06:47:10;101600.00;;;1.00;100.00
59767;BME280;46248;58.364;25.582;2024-03-02T06:50:32;101601.75;;;1.04;100.00
59767;BME280;46248;58.364;25.582;2024-03-02T06:53:55;101603.44;;;1.05;100.00
59767;BME280;46248;58.364;25.582;2024-03-02T06:57:17;101597.47;;;1.06;100.00
59767;BME280;46248;58.364;25.582;2024-03-02T07:00:40;101597.47;;;1.06;100.00
59767;BME280;46248;58.364;25.582;2024-03-02T07:04:02;101589.72;;;1.06;100.00
59767;BME280;46248;58.364;25.582;2024-03-02T07:07:27;101584.56;;;1.06;100.00
59767;BME280;46248;58.364;25.582;2024-03-02T07:10:51;101592.31;;;1.09;100.00
59767;BME280;46248;58.364;25.582;2024-03-02T07:14:13;101584.53;;;1.05;100.00
59767;BME280;46248;58.364;25.582;2024-03-02T07:17:35;101606.06;;;1.14;100.00
59767;BME280;46248;58.364;25.582;2024-03-02T07:20:57;101595.78;;;1.16;100.00
59767;BME280;46248;58.364;25.582;2024-03-02T07:24:21;101589.78;;;1.20;100.00
59767;BME280;46248;58.364;25.582;2024-03-02T07:27:45;101586.38;;;1.24;100.00
59767;BME280;46248;58.364;25.582;2024-03-02T07:31:06;101588.09;;;1.28;100.00
59767;BME280;46248;58.364;25.582;2024-03-02T07:34:30;101582.94;;;1.28;100.00
59767;BME280;46248;58.364;25.582;2024-03-02T07:37:52;101588.09;;;1.30;100.00
59767;BME280;46248;58.364;25.582;2024-03-02T07:41:13;101588.97;;;1.32;100.00
59767;BME280;46248;58.364;25.582;2024-03-02T07:44:37;101586.41;;;1.35;100.00
59767;BME280;46248;58.364;25.582;2024-03-02T07:48:01;101581.25;;;1.36;100.00
59767;BME280;46248;58.364;25.582;2024-03-02T07:51:24;101589.00;;;1.38;100.00
59767;BME280;46248;58.364;25.582;2024-03-02T07:54:46;101588.13;;;1.37;100.00
59767;BME280;46248;58.364;25.582;2024-03-02T07:58:08;101598.47;;;1.41;100.00
59767;BME280;46248;58.364;25.582;2024-03-02T08:01:33;101592.47;;;1.43;100.00
59767;BME280;46248;58.364;25.582;2024-03-02T08:04:55;101582.09;;;1.32;100.00
59767;BME280;46248;58.364;25.582;2024-03-02T08:08:17;101591.63;;;1.46;100.00
59767;BME280;46248;58.364;25.582;2024-03-02T08:11:39;101588.16;;;1.47;100.00
59767;BME280;46248;58.364;25.582;2024-03-02T08:15:01;101582.13;;;1.45;100.00
59767;BME280;46248;58.364;25.582;2024-03-02T08:18:24;101585.56;;;1.41;100.00
59767;BME280;46248;58.364;25.582;2024-03-02T08:21:46;101589.88;;;1.40;100.00
59767;BME280;46248;58.364;25.582;2024-03-02T08:25:08;101583.88;;;1.43;100.00
59767;BME280;46248;58.364;25.582;2024-03-02T08:28:30;101582.16;;;1.46;100.00
59767;BME280;46248;58.364;25.582;2024-03-02T08:31:53;101573.53;;;1.44;100.00
59767;BME280;46248;58.364;25.582;2024-03-02T08:35:16;101593.34;;;1.51;100.00
59767;BME280;46248;58.364;25.582;2024-03-02T08:38:38;101592.47;;;1.49;100.00
59767;BME280;46248;58.364;25.582;2024-03-02T08:42:00;101601.09;;;1.51;100.00
59767;BME280;46248;58.364;25.582;2024-03-02T08:45:22;101600.22;;;1.52;100.00
59767;BME280;46248;58.364;25.582;2024-03-02T08:48:44;101605.41;;;1.52;100.00
59767;BME280;46248;58.364;25.582;2024-03-02T08:52:08;101602.78;;;1.51;100.00
59767;BME280;46248;58.364;25.582;2024-03-02T08:55:29;101609.69;;;1.50;100.00
59767;BME280;46248;58.364;25.582;2024-03-02T08:58:52;101601.09;;;1.51;100.00
59767;BME280;46248;58.364;25.582;2024-03-02T09:02:13;101599.34;;;1.47;100.00
59767;BME280;46248;58.364;25.582;2024-03-02T09:05:35;101588.13;;;1.42;100.00
59767;BME280;46248;58.364;25.582;2024-03-02T09:08:59;101583.84;;;1.41;100.00
59767;BME280;46248;58.364;25.582;2024-03-02T09:12:20;101587.25;;;1.38;100.00
59767;BME280;46248;58.364;25.582;2024-03-02T09:15:42;101589.00;;;1.41;100.00
59767;BME280;46248;58.364;25.582;2024-03-02T09:19:04;101591.59;;;1.44;100.00
59767;BME280;46248;58.364;25.582;2024-03-02T09:22:26;101597.59;;;1.45;100.00
59767;BME280;46248;58.364;25.582;2024-03-02T09:25:51;101597.59;;;1.37;100.00
59767;BME280;46248;58.364;25.582;2024-03-02T09:29:13;101597.56;;;1.35;100.00
59767;BME280;46248;58.364;25.582;2024-03-02T09:32:35;101585.56;;;1.37;100.00
59767;BME280;46248;58.364;25.582;2024-03-02T09:35:56;101574.34;;;1.32;100.00
59767;BME280;46248;58.364;25.582;2024-03-02T09:39:18;101588.16;;;1.45;100.00
59767;BME280;46248;58.364;25.582;2024-03-02T09:42:42;101590.75;;;1.50;100.00
59767;BME280;46248;58.364;25.582;2024-03-02T09:46:05;101582.16;;;1.52;100.00
59767;BME280;46248;58.364;25.582;2024-03-02T09:49:27;101595.97;;;1.57;100.00
59767;BME280;46248;58.364;25.582;2024-03-02T09:52:49;101596.81;;;1.55;100.00
59767;BME280;46248;58.364;25.582;2024-03-02T09:56:11;101589.03;;;1.49;100.00
59767;BME280;46248;58.364;25.582;2024-03-02T09:59:34;101587.31;;;1.51;100.00
59767;BME280;46248;58.364;25.582;2024-03-02T10:02:56;101587.31;;;1.49;100.00
59767;BME280;46248;58.364;25.582;2024-03-02T10:06:19;101595.06;;;1.46;100.00
59767;BME280;46248;58.364;25.582;2024-03-02T10:09:43;101593.28;;;1.42;100.00
59767;BME280;46248;58.364;25.582;2024-03-02T10:13:06;101604.53;;;1.46;100.00
59767;BME280;46248;58.364;25.582;2024-03-02T10:16:30;101603.66;;;1.50;100.00
59767;BME280;46248;58.364;25.582;2024-03-02T10:19:52;101604.53;;;1.53;100.00
59767;BME280;46248;58.364;25.582;2024-03-02T10:23:15;101600.22;;;1.57;100.00
59767;BME280;46248;58.364;25.582;2024-03-02T10:26:38;101610.59;;;1.66;100.00
59767;BME280;46248;58.364;25.582;2024-03-02T10:29:59;101606.31;;;1.70;100.00
59767;BME280;46248;58.364;25.582;2024-03-02T10:33:28;101611.47;;;1.71;100.00
59767;BME280;46248;58.364;25.582;2024-03-02T10:36:51;101606.34;;;1.76;100.00
59767;BME280;46248;58.364;25.582;2024-03-02T10:40:13;101595.97;;;1.67;100.00
59767;BME280;46248;58.364;25.582;2024-03-02T10:43:36;101598.56;;;1.71;100.00
59767;BME280;46248;58.364;25.582;2024-03-02T10:47:00;101598.59;;;1.73;100.00
59767;BME280;46248;58.364;25.582;2024-03-02T10:50:24;101599.44;;;1.78;100.00
59767;BME280;46248;58.364;25.582;2024-03-02T10:53:46;101594.28;;;1.90;100.00
59767;BME280;46248;58.364;25.582;2024-03-02T10:57:10;101589.16;;;1.98;100.00
59767;BME280;46248;58.364;25.582;2024-03-02T11:00:34;101581.38;;;2.05;100.00
59767;BME280;46248;58.364;25.582;2024-03-02T11:03:56;101588.28;;;2.08;100.00
59767;BME280;46248;58.364;25.582;2024-03-02T11:07:21;101579.69;;;2.12;100.00
59767;BME280;46248;58.364;25.582;2024-03-02T11:10:49;101580.53;;;2.20;100.00
59767;BME280;46248;58.364;25.582;2024-03-02T11:14:14;101582.25;;;2.29;100.00
59767;BME280;46248;58.364;25.582;2024-03-02T11:17:39;101577.97;;;2.40;100.00
59767;BME280;46248;58.364;25.582;2024-03-02T11:21:02;101571.06;;;2.44;100.00
59767;BME280;46248;58.364;25.582;2024-03-02T11:24:32;101574.50;;;2.44;100.00
59767;BME280;46248;58.364;25.582;2024-03-02T11:28:02;101565.03;;;2.45;100.00
59767;BME280;46248;58.364;25.582;2024-03-02T11:35:15;101561.56;;;2.47;100.00
59767;BME280;46248;58.364;25.582;2024-03-02T11:38:38;101570.19;;;2.48;100.00
59767;BME280;46248;58.364;25.582;2024-03-02T11:42:01;101569.31;;;2.50;100.00
59767;BME280;46248;58.364;25.582;2024-03-02T11:45:24;101577.09;;;2.50;100.00
59767;BME280;46248;58.364;25.582;2024-03-02T11:48:46;101570.19;;;2.46;100.00
59767;BME280;46248;58.364;25.582;2024-03-02T11:52:10;101563.31;;;2.44;100.00
59767;BME280;46248;58.364;25.582;2024-03-02T11:55:34;101571.91;;;2.41;100.00
59767;BME280;46248;58.364;25.582;2024-03-02T11:58:58;101557.25;;;2.48;100.00
59767;BME280;46248;58.364;25.582;2024-03-02T12:02:21;101548.66;;;2.52;100.00
59767;BME280;46248;58.364;25.582;2024-03-02T12:05:43;101571.03;;;2.71;100.00
59767;BME280;46248;58.364;25.582;2024-03-02T12:09:05;101558.09;;;2.76;100.00
59767;BME280;46248;58.364;25.582;2024-03-02T12:12:27;101567.56;;;2.71;100.00
59767;BME280;46248;58.364;25.582;2024-03-02T12:15:53;101546.91;;;2.59;100.00
59767;BME280;46248;58.364;25.582;2024-03-02T12:19:16;101559.84;;;2.63;100.00
59767;BME280;46248;58.364;25.582;2024-03-02T12:22:40;101551.22;;;2.57;100.00
59767;BME280;46248;58.364;25.582;2024-03-02T12:26:03;101551.22;;;2.63;100.00
59767;BME280;46248;58.364;25.582;2024-03-02T12:29:25;101546.88;;;2.74;100.00
59767;BME280;46248;58.364;25.582;2024-03-02T12:32:49;101539.06;;;2.97;100.00
59767;BME280;46248;58.364;25.582;2024-03-02T12:36:11;101534.69;;;3.08;100.00
59767;BME280;46248;58.364;25.582;2024-03-02T12:39:34;101535.56;;;3.12;100.00
59767;BME280;46248;58.364;25.582;2024-03-02T12:42:56;101526.94;;;3.08;100.00
59767;BME280;46248;58.364;25.582;2024-03-02T12:46:18;101526.09;;;3.02;100.00
59767;BME280;46248;58.364;25.582;2024-03-02T12:49:42;101510.63;;;2.89;100.00
59767;BME280;46248;58.364;25.582;2024-03-02T12:53:04;101529.56;;;2.96;100.00
59767;BME280;46248;58.364;25.582;2024-03-02T12:56:26;101528.72;;;2.97;100.00
59767;BME280;46248;58.364;25.582;2024-03-02T12:59:48;101518.31;;;3.06;100.00
59767;BME280;46248;58.364;25.582;2024-03-02T13:03:11;101516.59;;;3.05;100.00
59767;BME280;46248;58.364;25.582;2024-03-02T13:06:37;101517.47;;;3.04;100.00
59767;BME280;46248;58.364;25.582;2024-03-02T13:09:59;101520.06;;;2.98;100.00
59767;BME280;46248;58.364;25.582;2024-03-02T13:13:21;101523.56;;;2.91;100.00
59767;BME280;46248;58.364;25.582;2024-03-02T13:16:44;101519.28;;;2.85;100.00
59767;BME280;46248;58.364;25.582;2024-03-02T13:20:08;101512.38;;;2.83;100.00
59767;BME280;46248;58.364;25.582;2024-03-02T13:23:33;101510.66;;;2.80;100.00
59767;BME280;46248;58.364;25.582;2024-03-02T13:26:55;101514.13;;;2.79;100.00
59767;BME280;46248;58.364;25.582;2024-03-02T13:30:18;101479.69;;;2.57;100.00
59767;BME280;46248;58.364;25.582;2024-03-02T13:33:40;101515.84;;;2.74;100.00
59767;BME280;46248;58.364;25.582;2024-03-02T13:37:02;101515.84;;;2.71;100.00
59767;BME280;46248;58.364;25.582;2024-03-02T13:40:27;101521.88;;;2.71;100.00
59767;BME280;46248;58.364;25.582;2024-03-02T13:43:50;101519.31;;;2.73;100.00
59767;BME280;46248;58.364;25.582;2024-03-02T13:47:14;101521.88;;;2.74;100.00
59767;BME280;46248;58.364;25.582;2024-03-02T13:50:36;101521.03;;;2.79;100.00
59767;BME280;46248;58.364;25.582;2024-03-02T13:53:58;101523.59;;;2.80;100.00
59767;BME280;46248;58.364;25.582;2024-03-02T13:57:21;101516.72;;;2.70;100.00
59767;BME280;46248;58.364;25.582;2024-03-02T14:00:46;101512.41;;;2.63;100.00
59767;BME280;46248;58.364;25.582;2024-03-02T14:04:09;101515.88;;;2.66;100.00
59767;BME280;46248;58.364;25.582;2024-03-02T14:07:31;101511.53;;;2.68;100.00
59767;BME280;46248;58.364;25.582;2024-03-02T14:10:53;101507.25;;;2.70;100.00
59767;BME280;46248;58.364;25.582;2024-03-02T14:14:17;101504.66;;;2.73;100.00
59767;BME280;46248;58.364;25.582;2024-03-02T14:17:39;101505.50;;;2.75;100.00
59767;BME280;46248;58.364;25.582;2024-03-02T14:21:01;101496.03;;;2.73;100.00
59767;BME280;46248;58.364;25.582;2024-03-02T14:24:24;101508.09;;;2.74;100.00
59767;BME280;46248;58.364;25.582;2024-03-02T14:27:46;101493.47;;;2.67;100.00
59767;BME280;46248;58.364;25.582;2024-03-02T14:31:30;101501.25;;;2.58;100.00
59767;BME280;46248;58.364;25.582;2024-03-02T14:34:52;101509.84;;;2.61;100.00
59767;BME280;46248;58.364;25.582;2024-03-02T14:38:14;101508.13;;;2.57;100.00
59767;BME280;46248;58.364;25.582;2024-03-02T14:41:36;101500.41;;;2.49;100.00
59767;BME280;46248;58.364;25.582;2024-03-02T14:44:58;101499.56;;;2.43;100.00
59767;BME280;46248;58.364;25.582;2024-03-02T14:48:21;101504.72;;;2.41;100.00
59767;BME280;46248;58.364;25.582;2024-03-02T14:51:44;101506.44;;;2.41;100.00
59767;BME280;46248;58.364;25.582;2024-03-02T14:55:06;101502.16;;;2.37;100.00
59767;BME280;46248;58.364;25.582;2024-03-02T14:58:28;101508.19;;;2.34;100.00
59767;BME280;46248;58.364;25.582;2024-03-02T15:01:50;101515.06;;;2.29;100.00
59767;BME280;46248;58.364;25.582;2024-03-02T15:05:14;101503.88;;;2.22;100.00
59767;BME280;46248;58.364;25.582;2024-03-02T15:08:36;101504.78;;;2.18;100.00
59767;BME280;46248;58.364;25.582;2024-03-02T15:11:58;101506.47;;;2.18;100.00
59767;BME280;46248;58.364;25.582;2024-03-02T15:15:19;101496.13;;;2.15;100.00
59767;BME280;46248;58.364;25.582;2024-03-02T15:18:41;101501.31;;;2.13;100.00
59767;BME280;46248;58.364;25.582;2024-03-02T15:22:05;101495.28;;;2.06;100.00
59767;BME280;46248;58.364;25.582;2024-03-02T15:25:27;101501.31;;;2.04;100.00
59767;BME280;46248;58.364;25.582;2024-03-02T15:28:49;101506.50;;;2.01;100.00
59767;BME280;46248;58.364;25.582;2024-03-02T15:32:11;101495.28;;;1.96;100.00
59767;BME280;46248;58.364;25.582;2024-03-02T15:35:32;101503.03;;;1.93;100.00
59767;BME280;46248;58.364;25.582;2024-03-02T15:38:56;101505.63;;;1.91;100.00
59767;BME280;46248;58.364;25.582;2024-03-02T15:42:18;101468.59;;;1.69;100.00
59767;BME280;46248;58.364;25.582;2024-03-02T15:45:43;101500.44;;;1.83;100.00
59767;BME280;46248;58.364;25.582;2024-03-02T15:49:05;101470.31;;;1.61;100.00
59767;BME280;46248;58.364;25.582;2024-03-02T15:52:28;101505.63;;;1.77;100.00
59767;BME280;46248;58.364;25.582;2024-03-02T15:55:52;101512.50;;;1.75;100.00
59767;BME280;46248;58.364;25.582;2024-03-02T15:59:13;101512.50;;;1.77;100.00
59767;BME280;46248;58.364;25.582;2024-03-02T16:02:35;101515.94;;;1.74;100.00
59767;BME280;46248;58.364;25.582;2024-03-02T16:05:57;101503.88;;;1.72;100.00
59767;BME280;46248;58.364;25.582;2024-03-02T16:09:19;101507.34;;;1.68;100.00
59767;BME280;46248;58.364;25.582;2024-03-02T16:12:42;101515.94;;;1.60;100.00
59767;BME280;46248;58.364;25.582;2024-03-02T16:16:04;101511.59;;;1.56;100.00
59767;BME280;46248;58.364;25.582;2024-03-02T16:19:26;101518.47;;;1.48;100.00
59767;BME280;46248;58.364;25.582;2024-03-02T16:22:52;101510.72;;;1.41;100.00
59767;BME280;46248;58.364;25.582;2024-03-02T16:26:15;101512.44;;;1.31;100.00
59767;BME280;46248;58.364;25.582;2024-03-02T16:29:38;101511.56;;;1.24;100.00
59767;BME280;46248;58.364;25.582;2024-03-02T16:33:00;101518.38;;;1.18;100.00
59767;BME280;46248;58.364;25.582;2024-03-02T16:36:21;101510.66;;;1.13;100.00
59767;BME280;46248;58.364;25.582;2024-03-02T16:39:43;101524.38;;;1.07;100.00
59767;BME280;46248;58.364;25.582;2024-03-02T16:43:05;101517.47;;;1.00;100.00
59767;BME280;46248;58.364;25.582;2024-03-02T16:46:28;101518.31;;;0.95;100.00
59767;BME280;46248;58.364;25.582;2024-03-02T16:49:50;101522.59;;;0.91;100.00
59767;BME280;46248;58.364;25.582;2024-03-02T16:53:12;101523.41;;;0.84;100.00
59767;BME280;46248;58.364;25.582;2024-03-02T16:56:39;101525.97;;;0.79;100.00
59767;BME280;46248;58.364;25.582;2024-03-02T17:00:01;101517.38;;;0.76;100.00
59767;BME280;46248;58.364;25.582;2024-03-02T17:03:24;101510.47;;;0.70;100.00
59767;BME280;46248;58.364;25.582;2024-03-02T17:06:47;101499.25;;;0.63;100.00
59767;BME280;46248;58.364;25.582;2024-03-02T17:10:09;101513.88;;;0.66;100.00
59767;BME280;46248;58.364;25.582;2024-03-02T17:13:31;101519.00;;;0.63;100.00
59767;BME280;46248;58.364;25.582;2024-03-02T17:16:53;101521.56;;;0.58;100.00
59767;BME280;46248;58.364;25.582;2024-03-02T17:20:16;101528.44;;;0.58;100.00
59767;BME280;46248;58.364;25.582;2024-03-02T17:23:40;101531.00;;;0.56;100.00
59767;BME280;46248;58.364;25.582;2024-03-02T17:27:02;101528.41;;;0.53;100.00